»·PEaware :: N535EG KTRK-KBOI

N535EG :: KTRK-KBOI

FLIGHT INFORMATION

Flight Status: Arrived
Operator: Privately registered:
United States
More flights under this callsign
Pilot: Anonymous 17686 (17686)
Aircraft: BEECH AIRCRAFT SUPER KING AIR 350
(B350)
More flights by this aircraft type
Origin: KTRK Truckee-Tahoe
United States
Destination: KBOI Boise Air Terminal/Gowen
United States
More flights between these airports :: More routes between these airports
Route: +TAHOE1 FMG PRNCS SADYL3
File this flight plan on PilotEdge
Remarks:
Altitude:
(Current/Filed)
27,000ft
Speed:
(Current/Filed)
240kts
Departed: 03-Feb-18 08:58 AM
Arrived: 03-Feb-18 10:22 AM
Distance/Time
Traveled:
309nm/1:24
Distance/Time
To Go:
Arrived

Flight Plot

Page will automatically refresh every two minutes.

Flight plan parsing failed; only flown route is shown


Map Options




Map Legend


Flown Route
Filed Route
Departure Airport
Arrival Airport
Navaid (VOR, NDB)
Fix

Horizontal Profiles

Position Reports

Time Latitude Longitude Heading Altitude Ground
Speed
03-Feb-18 08:52 39.319810 -120.146291 151 5905ft 0kts
03-Feb-18 08:53 39.319809 -120.146290 151 5905ft 0kts
03-Feb-18 08:54 39.319807 -120.146289 151 5905ft 0kts
03-Feb-18 08:55 39.319806 -120.146288 151 5905ft 0kts
03-Feb-18 08:56 39.319805 -120.146287 151 5905ft 0kts
03-Feb-18 08:57 39.319803 -120.146286 151 5905ft 0kts
03-Feb-18 08:58 39.319802 -120.146285 151 5905ft 0kts
03-Feb-18 08:59 39.319801 -120.146284 151 5905ft 0kts
03-Feb-18 09:00 39.319799 -120.146283 151 5905ft 0kts
03-Feb-18 09:01 39.319801 -120.145201 103 5905ft 18kts
03-Feb-18 09:02 39.316796 -120.138972 208 5905ft 14kts
03-Feb-18 09:03 39.314826 -120.140344 164 5905ft 0kts
03-Feb-18 09:04 39.316964 -120.138204 30 5905ft 71kts
03-Feb-18 09:05 39.351717 -120.125022 1 6903ft 173kts
03-Feb-18 09:07 39.403638 -120.121016 4 8542ft 187kts
03-Feb-18 09:08 39.457595 -120.117876 351 9883ft 207kts
03-Feb-18 09:09 39.511480 -120.146380 314 11070ft 223kts
03-Feb-18 09:10 39.488928 -120.214148 189 11774ft 264kts
03-Feb-18 09:11 39.432663 -120.261037 269 11995ft 267kts
03-Feb-18 09:12 39.479895 -120.311097 1 11990ft 249kts
03-Feb-18 09:13 39.542472 -120.282573 61 11661ft 269kts
03-Feb-18 09:13 39.536307 -120.201668 103 12065ft 261kts
03-Feb-18 09:14 39.525027 -120.116287 80 13366ft 239kts
03-Feb-18 09:16 39.529213 -120.014389 83 14526ft 247kts
03-Feb-18 09:17 39.530328 -119.924053 83 15534ft 254kts
03-Feb-18 09:17 39.530652 -119.847328 84 16366ft 257kts
03-Feb-18 09:18 39.531404 -119.753625 77 17371ft 259kts
03-Feb-18 09:19 39.522602 -119.665450 116 18377ft 275kts
03-Feb-18 09:20 39.545277 -119.590716 22 19390ft 232kts
03-Feb-18 09:21 39.604025 -119.554947 17 20333ft 233kts
03-Feb-18 09:22 39.664487 -119.519658 17 21084ft 241kts
03-Feb-18 09:23 39.724742 -119.484131 17 21777ft 235kts
03-Feb-18 09:24 39.783977 -119.449152 17 22474ft 231kts
03-Feb-18 09:25 39.842229 -119.414720 17 23168ft 229kts
03-Feb-18 09:26 39.900166 -119.380475 16 23866ft 227kts
03-Feb-18 09:27 39.957452 -119.346448 16 24562ft 225kts
03-Feb-18 09:28 40.014376 -119.312664 15 25261ft 225kts
03-Feb-18 09:29 40.071779 -119.278581 15 25963ft 227kts
03-Feb-18 09:30 40.129287 -119.244353 15 26662ft 227kts
03-Feb-18 09:31 40.186695 -119.210094 15 27359ft 226kts
03-Feb-18 09:32 40.246524 -119.174570 16 27499ft 252kts
03-Feb-18 09:33 40.315052 -119.133945 17 27495ft 284kts
03-Feb-18 09:34 40.388825 -119.089709 17 27491ft 296kts
03-Feb-18 09:35 40.464219 -119.044238 17 27489ft 300kts
03-Feb-18 09:36 40.540223 -118.998223 17 27488ft 301kts
03-Feb-18 09:37 40.616745 -118.951766 17 27486ft 302kts
03-Feb-18 09:38 40.693031 -118.905347 17 27484ft 302kts
03-Feb-18 09:39 40.769227 -118.858871 17 27483ft 302kts
03-Feb-18 09:40 40.845563 -118.812204 17 27481ft 301kts
03-Feb-18 09:41 40.921520 -118.765644 16 27480ft 301kts
03-Feb-18 09:42 40.997643 -118.718994 16 27474ft 301kts
03-Feb-18 09:43 41.073556 -118.672305 16 27458ft 301kts
03-Feb-18 09:44 41.149377 -118.625541 16 27456ft 300kts
03-Feb-18 09:45 41.225261 -118.578629 16 27455ft 300kts
03-Feb-18 09:46 41.300764 -118.531863 16 27457ft 299kts
03-Feb-18 09:47 41.376487 -118.484864 16 27456ft 299kts
03-Feb-18 09:48 41.451817 -118.438006 15 27453ft 299kts
03-Feb-18 09:49 41.526996 -118.391150 15 27450ft 298kts
03-Feb-18 09:50 41.602311 -118.344117 15 27438ft 298kts
03-Feb-18 09:51 41.677404 -118.297283 15 27431ft 298kts
03-Feb-18 09:52 41.752336 -118.250298 15 27425ft 297kts
03-Feb-18 09:53 41.827437 -118.203120 15 27419ft 297kts
03-Feb-18 09:54 41.902144 -118.156100 15 27442ft 296kts
03-Feb-18 09:55 41.977170 -118.108821 15 27401ft 296kts
03-Feb-18 09:56 42.051657 -118.061903 15 27400ft 296kts
03-Feb-18 09:57 42.126989 -118.014457 24 27093ft 305kts
03-Feb-18 09:58 42.204541 -117.965367 15 26692ft 307kts
03-Feb-18 09:59 42.280268 -117.917179 15 26188ft 297kts
03-Feb-18 10:00 42.354577 -117.869525 16 25684ft 290kts
03-Feb-18 10:01 42.424121 -117.814873 26 25112ft 295kts
03-Feb-18 10:02 42.484917 -117.737950 36 24037ft 303kts
03-Feb-18 10:03 42.540809 -117.651525 39 22936ft 304kts
03-Feb-18 10:04 42.594684 -117.563262 40 21838ft 303kts
03-Feb-18 10:05 42.646215 -117.477442 40 21523ft 281kts
03-Feb-18 10:06 42.694936 -117.396366 39 21369ft 270kts
03-Feb-18 10:07 42.741636 -117.318629 39 21374ft 263kts
03-Feb-18 10:08 42.788728 -117.239952 39 20722ft 281kts
03-Feb-18 10:09 42.839565 -117.154065 41 19395ft 298kts
03-Feb-18 10:10 42.891676 -117.064926 41 17996ft 302kts
03-Feb-18 10:11 42.943945 -116.975519 42 16593ft 299kts
03-Feb-18 10:12 42.995516 -116.887055 42 15196ft 295kts
03-Feb-18 10:13 43.047831 -116.798799 42 13747ft 297kts
03-Feb-18 10:14 43.098314 -116.711798 42 12348ft 288kts
03-Feb-18 10:15 43.161611 -116.656901 15 10394ft 280kts
03-Feb-18 10:16 43.231330 -116.625089 13 10098ft 255kts
03-Feb-18 10:17 43.298046 -116.593864 13 9383ft 250kts
03-Feb-18 10:18 43.365170 -116.574738 355 8385ft 245kts
03-Feb-18 10:19 43.432399 -116.578251 353 7028ft 233kts
03-Feb-18 10:20 43.495389 -116.584374 353 5256ft 232kts
03-Feb-18 10:21 43.558170 -116.591909 353 5012ft 225kts
03-Feb-18 10:22 43.619647 -116.565944 23 4371ft 238kts
03-Feb-18 10:23 43.652230 -116.494383 95 4010ft 243kts
03-Feb-18 10:24 43.628235 -116.414443 112 4001ft 193kts
03-Feb-18 10:25 43.606822 -116.350166 109 4019ft 173kts
03-Feb-18 10:26 43.588337 -116.298606 110 3685ft 145kts
03-Feb-18 10:27 43.571503 -116.247363 111 2992ft 141kts
03-Feb-18 10:28 43.562718 -116.223660 199 2839ft 3kts
03-Feb-18 10:29 43.561021 -116.222946 112 2839ft 12kts
03-Feb-18 10:30 43.560983 -116.222821 111 2839ft 0kts

Navigation Log

Ident Type
Flight plan parsing failed, navigation log unavailable